Shoreview, Minnesota
Current Conditions -  °F | °C
As of 11:45 AM on Saturday 25 Oct 2014 (Local Time) from KANE Reporting Station
Scattered Clouds Scattered Clouds  
Wind Chill: 61°   Ceiling: Unl
Heat Index: 61°   Visibility: 10mi
Dew Point: 32°   Wind: 14mph
Humidity: 34%   Direction: 300°WNW
Pressure: 30.04"   Gusts: 22mph
Location:  45.0848°N, 93.136°W
Report Text: KANE 251645Z 30012G19KT 10SM SCT150 16/00 A3004
Loading
Personal Weather Stations






























Interactive Weather Map
Tropical Storm Tracking
New forecast layout! Learn more

10-Day Weather Forecast

Advertisements
Track Severe Weather on mobile